Time;durP1;ratioP1;P1;durP2;ratioP2;P2;SDS_P1;SDS_P2;PMS_P1;PMS_P2;Temp;Humidity;BMP_temperature;BMP_pressure;BME280_temperature;BME280_humidity;BME280_pressure;Samples;Min_cycle;Max_cycle;Signal;HPM_P1;HPM_P2
2022/02/15 05:46:07;;;;;;;17.73;8.93;;;;;;;-2.60;80.86;101077.81;1679670;84;21040;-47
2022/02/15 05:48:37;;;;;;;15.65;7.97;;;;;;;-2.37;80.51;101077.13;1685056;84;21563;-37
2022/02/15 05:51:06;;;;;;;16.45;7.87;;;;;;;-2.29;80.04;101077.21;1690940;84;21046;-39
2022/02/15 05:53:40;;;;;;;21.57;8.53;;;;;;;-2.23;79.78;101077.60;1669801;83;21025;-37
2022/02/15 05:56:08;;;;;;;22.07;8.78;;;;;;;-2.16;79.60;101087.05;1686607;84;21122;-38
2022/02/15 05:58:37;;;;;;;19.57;9.13;;;;;;;-2.09;79.65;101083.59;1691105;84;21049;-36
2022/02/15 06:01:06;;;;;;;19.95;8.98;;;;;;;-1.99;79.58;101084.27;1695455;83;21045;-37
2022/02/15 06:06:22;;;;;;;22.45;9.25;;;;;;;-1.75;79.38;101075.91;1684198;84;21080;-38
2022/02/15 06:08:50;;;;;;;24.60;9.88;;;;;;;-1.65;79.21;101074.81;1684106;84;21053;-38
2022/02/15 06:11:17;;;;;;;24.23;11.03;;;;;;;-1.55;79.15;101078.84;1685865;84;21049;-46
2022/02/15 06:13:46;;;;;;;24.67;12.20;;;;;;;-1.43;79.18;101086.88;1685099;83;21336;-38
2022/02/15 06:16:16;;;;;;;22.70;10.28;;;;;;;-1.28;79.16;101080.47;1682305;83;21666;-36
2022/02/15 06:18:55;;;;;;;21.37;10.30;;;;;;;-1.13;79.19;101085.25;1678890;83;21041;-46
2022/02/15 06:21:38;;;;;;;33.55;11.28;;;;;;;-1.01;78.78;101083.80;1682061;83;22228;-46
2022/02/15 06:25:26;;;;;;;29.07;11.90;;;;;;;-0.88;78.35;101080.25;1666456;83;21134;-38
2022/02/15 06:32:09;;;;;;;22.48;11.20;;;;;;;-0.59;77.38;101078.95;1677517;83;21393;-46
2022/02/15 06:34:36;;;;;;;21.50;10.35;;;;;;;-0.44;76.83;101076.38;1689545;83;21699;-37
2022/02/15 06:37:05;;;;;;;33.30;12.63;;;;;;;-0.34;76.58;101079.97;1684601;83;21520;-38
2022/02/15 06:39:33;;;;;;;20.57;10.00;;;;;;;-0.25;76.27;101079.58;1686282;83;21040;-38
2022/02/15 06:42:02;;;;;;;22.25;12.45;;;;;;;-0.14;76.31;101082.75;1675249;84;21078;-47
2022/02/15 06:44:30;;;;;;;22.15;10.95;;;;;;;-0.04;76.24;101079.89;1682528;83;21054;-38
2022/02/15 06:46:57;;;;;;;32.88;12.35;;;;;;;0.08;76.17;101080.55;1677602;83;21394;-38
2022/02/15 06:49:26;;;;;;;25.82;13.25;;;;;;;0.17;75.97;101083.61;1675746;83;21108;-38
2022/02/15 06:51:54;;;;;;;29.75;13.20;;;;;;;0.26;75.61;101078.09;1674209;83;21459;-37
2022/02/15 06:54:29;;;;;;;25.23;12.05;;;;;;;0.34;75.24;101078.08;1677581;83;21372;-46
2022/02/15 06:57:00;;;;;;;26.65;12.82;;;;;;;0.43;75.07;101067.00;1675539;83;21608;-46
2022/02/15 06:59:29;;;;;;;29.20;13.53;;;;;;;0.54;74.87;101064.98;1668997;83;21109;-46
2022/02/15 07:01:55;;;;;;;30.17;12.95;;;;;;;0.63;74.68;101062.88;1676198;83;21083;-46
2022/02/15 07:04:22;;;;;;;23.15;12.75;;;;;;;0.73;74.19;101070.69;1673877;83;21606;-47
2022/02/15 07:06:56;;;;;;;31.25;13.22;;;;;;;0.78;73.65;101061.10;1673429;83;21009;-38
2022/02/15 07:09:50;;;;;;;30.90;13.45;;;;;;;0.82;73.45;101068.59;1672518;84;21025;-38
2022/02/15 07:25:26;;;;;;;19.02;10.35;;;;;;;1.11;72.82;101061.05;1673779;83;21619;-46
2022/02/15 07:29:06;;;;;;;;;;;;;;;1.17;72.23;101055.31;1639342;85;21621;-38
2022/02/15 07:32:39;;;;;;;22.50;11.08;;;;;;;1.21;72.30;101047.79;1634065;85;20426;-37
2022/02/15 07:38:28;;;;;;;21.37;10.10;;;;;;;1.26;72.25;101053.17;1676894;83;21052;-47
2022/02/15 07:40:54;;;;;;;22.62;10.65;;;;;;;1.34;71.59;101059.62;1677498;83;21042;-47
2022/02/15 07:43:21;;;;;;;20.45;9.48;;;;;;;1.33;71.60;101056.16;1621496;86;20978;-47
2022/02/15 07:45:48;;;;;;;23.38;11.90;;;;;;;1.37;71.98;101053.30;1667045;83;21116;-47
2022/02/15 07:48:15;;;;;;;25.12;10.53;;;;;;;1.45;71.42;101054.95;1685789;83;20979;-38
2022/02/15 07:50:44;;;;;;;24.10;10.63;;;;;;;1.48;71.32;101052.53;1690114;83;21061;-37
2022/02/15 07:53:13;;;;;;;26.30;12.03;;;;;;;1.50;70.36;101055.66;1691586;83;21403;-40
2022/02/15 07:55:41;;;;;;;25.02;11.57;;;;;;;1.51;70.63;101054.88;1692432;83;21014;-37
2022/02/15 07:58:09;;;;;;;28.25;11.70;;;;;;;1.58;71.25;101050.89;1686708;83;20989;-48
2022/02/15 08:00:38;;;;;;;21.82;12.73;;;;;;;1.69;71.56;101046.25;1693833;82;21129;-47
2022/02/15 08:03:05;;;;;;;32.98;12.73;;;;;;;1.78;71.07;101047.55;1667276;84;20986;-47
2022/02/15 08:05:34;;;;;;;29.50;13.90;;;;;;;1.85;70.28;101044.44;1689900;84;21052;-38
2022/02/15 08:08:06;;;;;;;27.42;13.20;;;;;;;1.91;70.40;101041.25;1694462;83;21462;-47
2022/02/15 08:10:34;;;;;;;25.95;12.45;;;;;;;1.99;70.14;101035.18;1687012;83;21081;-39
2022/02/15 08:13:03;;;;;;;26.57;12.53;;;;;;;2.02;69.96;101036.19;1688549;83;21021;-38
2022/02/15 08:16:18;;;;;;;27.85;12.40;;;;;;;2.05;69.50;101044.49;1685982;83;21072;-38
2022/02/15 08:23:39;;;;;;;23.55;12.63;;;;;;;2.13;69.74;101038.85;1689349;83;21692;-47
2022/02/15 08:27:03;;;;;;;25.30;12.95;;;;;;;2.28;69.68;101042.96;1636520;85;21225;-37
2022/02/15 08:30:11;;;;;;;25.40;12.53;;;;;;;2.31;69.62;101036.63;1689207;83;21403;-46
2022/02/15 08:32:56;;;;;;;26.87;13.35;;;;;;;2.35;69.81;101037.25;1688920;83;21891;-46
2022/02/15 08:36:36;;;;;;;37.90;15.08;;;;;;;2.41;68.94;101036.23;1666562;83;21701;-47
2022/02/15 08:47:29;;;;;;;30.37;13.68;;;;;;;2.63;68.09;101031.20;1655537;84;21130;-36
2022/02/15 08:53:04;;;;;;;25.05;13.35;;;;;;;2.74;67.91;101023.91;1655233;85;21531;-46
2022/02/15 08:55:51;;;;;;;24.60;13.62;;;;;;;2.82;68.02;101028.11;1630166;85;21161;-47
2022/02/15 08:58:37;;;;;;;34.88;16.00;;;;;;;2.89;68.05;101027.55;1631497;85;21003;-47
2022/02/15 09:04:58;;;;;;;26.48;14.05;;;;;;;3.12;67.17;101022.92;1651403;85;21089;-47
2022/02/15 09:12:03;;;;;;;27.67;13.80;;;;;;;3.32;66.30;101018.59;1641652;85;21071;-46
2022/02/15 09:28:42;;;;;;;23.22;13.22;;;;;;;3.81;64.74;100999.80;1639891;85;21616;-46
2022/02/15 09:38:40;;;;;;;22.67;11.57;;;;;;;4.02;64.70;100973.85;1650445;85;20994;-46
2022/02/15 09:41:20;;;;;;;34.27;14.33;;;;;;;4.09;63.22;100968.06;1593525;87;21490;-47
2022/02/15 09:44:05;;;;;;;31.52;12.73;;;;;;;4.12;63.68;100960.84;1647940;85;21046;-36
2022/02/15 09:46:34;;;;;;;31.45;13.08;;;;;;;4.20;63.99;100961.98;1661183;84;21087;-37
2022/02/15 09:49:01;;;;;;;25.62;13.65;;;;;;;4.30;62.93;100956.73;1665816;84;21029;-36
2022/02/15 09:51:35;;;;;;;27.77;12.43;;;;;;;4.41;62.86;100952.41;1642139;85;21046;-37
2022/02/15 09:54:03;;;;;;;27.80;12.45;;;;;;;4.51;62.42;100947.98;1635153;85;20980;-36
2022/02/15 09:56:39;;;;;;;19.62;11.60;;;;;;;4.59;62.56;100949.56;1643391;85;21096;-37
2022/02/15 09:59:14;;;;;;;30.35;14.38;;;;;;;4.68;62.08;100941.20;1622756;86;21520;-37
2022/02/15 10:01:41;;;;;;;32.90;12.07;;;;;;;4.75;61.94;100944.47;1637067;85;21060;-37
2022/02/15 10:04:33;;;;;;;21.37;12.33;;;;;;;4.79;60.58;100932.08;1652264;85;21083;-36
2022/02/15 10:19:11;;;;;;;17.35;10.58;;;;;;;5.00;58.32;100909.88;1641091;85;21079;-37
2022/02/15 10:31:20;;;;;;;21.40;11.45;;;;;;;5.78;56.66;100905.34;1647243;84;21131;-47
2022/02/15 10:34:41;;;;;;;20.20;10.23;;;;;;;6.31;55.30;100908.59;1648991;84;21413;-46
2022/02/15 10:50:30;;;;;;;27.45;11.03;;;;;;;8.85;47.54;100872.44;1687205;83;21411;-46
2022/02/15 10:54:00;;;;;;;22.80;11.28;;;;;;;9.19;47.67;100867.73;1688175;83;21837;-38
2022/02/15 11:00:39;;;;;;;24.07;10.78;;;;;;;10.04;45.86;100866.23;1686322;83;21001;-47
2022/02/15 11:07:42;;;;;;;19.77;10.90;;;;;;;10.48;43.90;100854.06;1689111;83;21704;-48
2022/02/15 11:18:41;;;;;;;22.32;11.88;;;;;;;11.31;43.06;100843.80;1690663;83;21583;-38
2022/02/15 11:30:53;;;;;;;20.50;10.35;;;;;;;11.81;41.60;100832.68;1688802;83;20986;-47
2022/02/15 11:34:34;;;;;;;23.80;11.48;;;;;;;12.28;40.16;100818.80;1683887;83;25430;-47
2022/02/15 11:37:47;;;;;;;25.88;12.33;;;;;;;12.31;40.86;100811.39;1664193;83;21015;-47
2022/02/15 11:40:16;;;;;;;20.60;12.28;;;;;;;12.24;39.59;100815.76;1650667;84;21309;-39
2022/02/15 11:42:49;;;;;;;25.85;12.88;;;;;;;12.07;38.90;100813.11;1688176;83;21005;-40
2022/02/15 11:49:13;;;;;;;26.95;13.72;;;;;;;11.72;40.07;100810.35;1686326;83;20155;-47
2022/02/15 11:55:19;;;;;;;27.48;14.78;;;;;;;11.79;40.28;100807.31;1688450;82;21066;-46
2022/02/15 11:57:47;;;;;;;30.55;15.48;;;;;;;11.63;40.18;100802.44;1687890;84;21013;-45
2022/02/15 12:00:15;;;;;;;33.18;15.18;;;;;;;11.50;40.92;100797.59;1686305;82;21506;-37
2022/02/15 12:02:52;;;;;;;30.08;16.05;;;;;;;11.51;41.15;100795.41;1687106;83;21477;-39
2022/02/15 12:05:21;;;;;;;30.45;15.65;;;;;;;11.60;41.84;100783.67;1682821;84;20962;-45
2022/02/15 12:07:54;;;;;;;27.07;15.53;;;;;;;11.67;41.04;100781.50;1683305;83;21733;-37
2022/02/15 12:11:12;;;;;;;32.13;15.88;;;;;;;11.42;41.93;100780.55;1684567;83;21630;-36
2022/02/15 12:14:22;;;;;;;30.43;15.72;;;;;;;11.17;42.39;100787.38;1641617;84;21033;-45
2022/02/15 12:17:14;;;;;;;32.03;15.00;;;;;;;10.81;43.22;100788.48;1669056;84;21132;-37
2022/02/15 12:20:36;;;;;;;26.57;14.40;;;;;;;10.55;43.81;100783.95;1657827;85;21088;-46
2022/02/15 12:23:43;;;;;;;25.72;13.72;;;;;;;10.32;43.80;100784.16;1652189;85;21567;-39
2022/02/15 12:27:49;;;;;;;26.82;12.88;;;;;;;10.08;44.94;100793.49;1614706;87;21073;-37
2022/02/15 12:31:05;;;;;;;20.40;11.85;;;;;;;9.96;45.58;100790.76;1683538;82;22041;-38
2022/02/15 12:33:36;;;;;;;18.30;9.53;;;;;;;9.76;46.64;100782.72;1678173;84;21017;-46
2022/02/15 12:36:05;;;;;;;13.10;7.67;;;;;;;9.85;46.38;100780.62;1691559;83;21120;-38
2022/02/15 12:38:39;;;;;;;21.52;7.50;;;;;;;9.97;44.67;100782.08;1671053;84;21481;-46
2022/02/15 12:41:23;;;;;;;15.05;7.22;;;;;;;9.89;44.92;100781.11;1687909;83;21080;-46
2022/02/15 12:43:58;;;;;;;18.07;7.08;;;;;;;9.65;45.35;100793.91;1665576;84;21064;-39
2022/02/15 12:47:02;;;;;;;16.60;8.18;;;;;;;9.20;46.27;100784.63;1689509;83;21629;-41
2022/02/15 12:50:38;;;;;;;11.00;7.35;;;;;;;9.03;47.52;100789.63;1677274;84;21175;-46
2022/02/15 12:53:57;;;;;;;11.80;7.58;;;;;;;9.00;47.60;100790.91;1689320;83;21430;-47
2022/02/15 12:56:26;;;;;;;13.68;7.65;;;;;;;8.83;48.36;100785.86;1685484;83;21041;-39
2022/02/15 12:59:02;;;;;;;19.42;8.88;;;;;;;8.79;48.58;100791.45;1660594;84;20973;-38
2022/02/15 13:01:28;;;;;;;15.23;8.48;;;;;;;8.67;49.05;100788.66;1685015;83;21661;-38
2022/02/15 13:03:57;;;;;;;15.72;9.65;;;;;;;8.74;49.27;100791.80;1692178;84;21394;-47
2022/02/15 13:06:25;;;;;;;16.25;9.65;;;;;;;8.99;49.14;100790.03;1687303;83;20995;-46
2022/02/15 13:08:57;;;;;;;14.95;9.10;;;;;;;9.38;48.70;100788.78;1683212;84;21000;-38
2022/02/15 14:15:28;;;;;;;15.85;8.50;;;;;;;4.93;62.41;100812.86;1818690;79;23000;-38
2022/02/15 14:17:57;;;;;;;12.25;8.05;;;;;;;4.77;62.69;100810.20;1791736;79;21075;-46
2022/02/15 14:20:24;;;;;;;12.78;7.65;;;;;;;4.69;63.21;100802.57;1786806;80;21029;-47
